createdAt,value
2017-04-27T00:00:06.361Z,53
2017-04-27T00:10:06.359Z,52.5
2017-04-27T00:20:06.388Z,53
2017-04-27T00:30:06.368Z,53
2017-04-27T00:40:06.367Z,53
2017-04-27T00:50:06.358Z,53
2017-04-27T01:00:06.364Z,52.5
2017-04-27T01:10:06.361Z,53
2017-04-27T01:20:06.360Z,53
2017-04-27T01:30:06.390Z,53
2017-04-27T01:40:06.357Z,53
2017-04-27T01:50:06.364Z,53
2017-04-27T02:00:06.389Z,51.9
2017-04-27T02:10:06.398Z,51.9
2017-04-27T02:20:00.765Z,53
2017-04-27T02:30:13.554Z,52.5
2017-04-27T02:40:16.365Z,52.5
2017-04-27T02:50:16.361Z,51.9
2017-04-27T03:00:16.357Z,53
2017-04-27T03:10:16.390Z,51.9
2017-04-27T03:20:13.577Z,53
2017-04-27T03:30:16.394Z,51.9
2017-04-27T03:40:06.356Z,51.9
2017-04-27T03:50:06.389Z,52.5
2017-04-27T04:00:06.359Z,51.9
2017-04-27T04:10:06.360Z,51.9
2017-04-27T04:20:06.391Z,51.9
2017-04-27T04:30:06.396Z,51.9
2017-04-27T04:40:06.390Z,51.9
2017-04-27T04:50:06.359Z,51.9
2017-04-27T05:00:01.368Z,51.9
2017-04-27T05:10:13.706Z,51.4
2017-04-27T05:20:16.368Z,51.9
2017-04-27T05:30:00.356Z,51.9
2017-04-27T05:40:13.865Z,51.9
2017-04-27T05:50:16.361Z,52.5
2017-04-27T06:00:13.720Z,51.9
2017-04-27T06:10:16.399Z,51.9
2017-04-27T06:20:06.363Z,51.9
2017-04-27T06:30:06.389Z,52.5
2017-04-27T06:40:06.357Z,51.9
2017-04-27T06:50:06.357Z,51.9
2017-04-27T07:00:06.363Z,53
2017-04-27T07:10:06.360Z,51.9
2017-04-27T07:20:06.392Z,53
2017-04-27T07:30:06.360Z,52.5
2017-04-27T07:40:06.360Z,52.5
2017-04-27T07:50:06.367Z,53
2017-04-27T08:00:06.359Z,52.5
2017-04-27T08:10:06.358Z,53
2017-04-27T08:20:06.356Z,53
2017-04-27T08:30:06.358Z,53
2017-04-27T08:40:06.358Z,53
2017-04-27T08:50:06.338Z,53.5
2017-04-27T09:00:06.363Z,53.5
2017-04-27T09:10:06.360Z,53.5
2017-04-27T09:20:06.359Z,54.1
2017-04-27T09:30:06.373Z,53.5
2017-04-27T09:40:06.367Z,54.1
2017-04-27T09:50:06.391Z,54.1
2017-04-27T10:00:06.361Z,54.1
2017-04-27T10:10:06.391Z,54.1
2017-04-27T10:20:06.358Z,55.1
2017-04-27T10:30:06.360Z,55.1
2017-04-27T10:40:06.388Z,55.1
2017-04-27T10:50:06.356Z,55.1
2017-04-27T11:00:06.359Z,55.1
2017-04-27T11:10:06.358Z,55.1
2017-04-27T11:20:02.179Z,55.1
2017-04-27T11:30:06.394Z,55.1
2017-04-27T11:40:06.394Z,55.1
2017-04-27T11:50:06.394Z,55.1
2017-04-27T12:00:06.368Z,55.7
2017-04-27T12:10:06.360Z,55.1
2017-04-27T12:20:06.392Z,55.1
2017-04-27T12:30:06.423Z,55.1
2017-04-27T12:40:06.360Z,55.7
2017-04-27T12:50:06.366Z,55.7
2017-04-27T13:00:06.363Z,55.7
2017-04-27T13:10:06.389Z,55.7
2017-04-27T13:20:06.359Z,55.7
2017-04-27T13:30:06.403Z,55.7
2017-04-27T13:40:06.371Z,56.2
2017-04-27T13:50:06.369Z,56.2
2017-04-27T14:00:06.391Z,56.2
2017-04-27T14:10:06.363Z,55.7
2017-04-27T14:20:06.362Z,56.2
2017-04-27T14:30:06.360Z,56.2
2017-04-27T14:40:06.400Z,55.7
2017-04-27T14:50:06.367Z,55.7
2017-04-27T15:00:06.398Z,55.7
2017-04-27T15:10:06.361Z,55.7
2017-04-27T15:20:06.395Z,56.2
2017-04-27T15:30:06.398Z,55.7
2017-04-27T15:40:06.385Z,55.1
2017-04-27T15:50:06.847Z,56.2
2017-04-27T16:00:06.367Z,55.7
2017-04-27T16:10:06.360Z,56.2
2017-04-27T16:20:06.397Z,56.2
2017-04-27T16:30:06.393Z,55.7
2017-04-27T16:40:06.359Z,55.7
2017-04-27T16:50:06.398Z,55.7
2017-04-27T17:00:06.364Z,55.7
2017-04-27T17:10:06.376Z,55.7
2017-04-27T17:20:06.403Z,55.7
2017-04-27T17:30:06.367Z,55.7
2017-04-27T17:40:06.361Z,55.7
2017-04-27T17:50:06.360Z,56.2
2017-04-27T18:00:06.363Z,55.1
2017-04-27T18:10:06.396Z,55.7
2017-04-27T18:20:06.368Z,55.7
2017-04-27T18:30:06.367Z,56.2
2017-04-27T18:40:06.402Z,55.1
2017-04-27T18:50:06.438Z,56.2
2017-04-27T19:00:06.416Z,55.1
2017-04-27T19:10:03.782Z,55.7
2017-04-27T19:20:06.408Z,55.7
2017-04-27T19:30:06.398Z,55.7
2017-04-27T19:40:06.366Z,55.7
2017-04-27T19:50:06.392Z,55.7
2017-04-27T20:00:04.752Z,55.7
2017-04-27T20:10:06.362Z,55.1
2017-04-27T20:20:06.430Z,55.1
2017-04-27T20:30:06.361Z,55.7
2017-04-27T20:40:06.359Z,55.1
2017-04-27T20:50:06.357Z,55.7
2017-04-27T21:00:06.432Z,55.7
2017-04-27T21:10:06.406Z,55.1
2017-04-27T21:20:06.405Z,55.1
2017-04-27T21:30:06.360Z,55.1
2017-04-27T21:40:06.359Z,55.1
2017-04-27T21:50:06.360Z,55.1
2017-04-27T22:00:06.360Z,54.6
2017-04-27T22:10:06.358Z,54.6
2017-04-27T22:20:06.390Z,55.1
2017-04-27T22:30:06.430Z,54.1
2017-04-27T22:40:06.396Z,55.1
2017-04-27T22:50:06.400Z,54.1
2017-04-27T23:00:06.369Z,54.1
2017-04-27T23:10:06.356Z,54.6
2017-04-27T23:20:06.396Z,54.1
2017-04-27T23:30:06.353Z,54.1
2017-04-27T23:40:06.388Z,54.1
2017-04-27T23:50:06.360Z,54.1
